PWSweather.com
Personal Weather Stations
Station Observations
WISCHPK61
Green Bay Schmitt Park, Green Bay, WI 54311

Green Bay Schmitt ParkGreen Bay, WI 54311

Lat: 44.514277, Lon: -87.935067

Elevation: 735

Station Type: Acu Rite Pro Weather Center model 02032C

http://greenbayweathercam.com

High Low Average
Temperature 78.3°F25.7°C 60.6°F15.9°C 68.4°F20.2°C
Dew Point 78.0°F25.6°C 57.2°F14.0°C 67.8°F19.9°C
Winds Calm Calm Calm Calm Calm SCalm S
Wind Gusts 2.3 mph3.7 kmh -- --
Humidity 99% 82% 98%
Pressure 29.25 in990.5 mb 29.15 in987.1 mb -
Precipitation 0.00 in0.0 mm - -
Hour Temp Dew Point Humidity Winds Wind Gusts Pressure Precip Precip Rate Daily Precip Total
12:00 AM 63.3°F17.4°C 63.0°F17.2°C 99% Calm Calm -- 29.25 in990.5 mb - 0.00 in0.0 mm 0.00 in0.0 mm
01:00 AM 63.1°F17.3°C 62.8°F17.1°C 99% Calm Calm -- 29.25 in990.5 mb - 0.00 in0.0 mm 0.00 in0.0 mm
02:00 AM 63.1°F17.3°C 62.8°F17.1°C 99% Calm Calm -- 29.25 in990.5 mb - 0.00 in0.0 mm 0.00 in0.0 mm
03:00 AM 63.1°F17.3°C 62.8°F17.1°C 99% Calm Calm -- 29.25 in990.5 mb - 0.00 in0.0 mm 0.00 in0.0 mm
04:00 AM 62.4°F16.9°C 62.1°F16.7°C 99% Calm Calm -- 29.24 in990.2 mb - 0.00 in0.0 mm 0.00 in0.0 mm
05:00 AM 61.2°F16.2°C 60.9°F16.1°C 99% Calm Calm -- 29.22 in989.5 mb - 0.00 in0.0 mm 0.00 in0.0 mm
06:00 AM 60.6°F15.9°C 59.7°F15.4°C 97% Calm Calm -- 29.21 in989.2 mb - 0.00 in0.0 mm 0.00 in0.0 mm
07:00 AM 62.7°F17.1°C 57.2°F14.0°C 82% Calm Calm -- 29.22 in989.5 mb - 0.00 in0.0 mm 0.00 in0.0 mm
08:00 AM 65.3°F18.5°C 62.0°F16.7°C 89% Calm Calm -- 29.22 in989.5 mb - 0.00 in0.0 mm 0.00 in0.0 mm
09:00 AM 66.7°F19.3°C 66.4°F19.1°C 99% Calm Calm -- 29.23 in989.8 mb - 0.00 in0.0 mm 0.00 in0.0 mm
10:00 AM 68.5°F20.3°C 68.2°F20.1°C 99% Calm Calm -- 29.23 in989.8 mb - 0.00 in0.0 mm 0.00 in0.0 mm
11:00 AM 69.1°F20.6°C 68.8°F20.4°C 99% Calm Calm -- 29.24 in990.2 mb - 0.00 in0.0 mm 0.00 in0.0 mm
12:00 PM 72.6°F22.6°C 72.3°F22.4°C 99% Calm Calm 1.2 mph1.9 kmh 29.23 in989.8 mb - 0.00 in0.0 mm 0.00 in0.0 mm
01:00 PM 74.3°F23.5°C 74.0°F23.3°C 99% Calm Calm 1.2 mph1.9 kmh 29.21 in989.2 mb - 0.00 in0.0 mm 0.00 in0.0 mm
02:00 PM 76.1°F24.5°C 75.8°F24.3°C 99% Calm Calm -- 29.20 in988.8 mb - 0.00 in0.0 mm 0.00 in0.0 mm
03:00 PM 77.2°F25.1°C 76.9°F24.9°C 99% Calm Calm 2.3 mph3.7 kmh 29.20 in988.8 mb - 0.00 in0.0 mm 0.00 in0.0 mm
04:00 PM 77.8°F25.4°C 77.5°F25.3°C 99% Calm Calm -- 29.19 in988.5 mb - 0.00 in0.0 mm 0.00 in0.0 mm
05:00 PM 78.3°F25.7°C 78.0°F25.6°C 99% Calm Calm 1.2 mph1.9 kmh 29.18 in988.1 mb - 0.00 in0.0 mm 0.00 in0.0 mm
06:00 PM 75.4°F24.1°C 75.1°F23.9°C 99% Calm Calm -- 29.15 in987.1 mb - 0.00 in0.0 mm 0.00 in0.0 mm
07:00 PM 74.1°F23.4°C 73.8°F23.2°C 99% Calm Calm -- 29.16 in987.5 mb - 0.00 in0.0 mm 0.00 in0.0 mm
08:00 PM 71.1°F21.7°C 70.8°F21.6°C 99% Calm Calm -- 29.18 in988.1 mb - 0.00 in0.0 mm 0.00 in0.0 mm
09:00 PM 67.3°F19.6°C 67.0°F19.4°C 99% Calm Calm -- 29.19 in988.5 mb - 0.00 in0.0 mm 0.00 in0.0 mm
10:00 PM 65.0°F18.3°C 64.7°F18.2°C 99% Calm Calm -- 29.19 in988.5 mb - 0.00 in0.0 mm 0.00 in0.0 mm
11:00 PM 63.9°F17.7°C 63.6°F17.6°C 99% Calm Calm -- 29.18 in988.1 mb - 0.00 in0.0 mm 0.00 in0.0 mm